• Join FlightAware (Why Join?)
  • Login
  • US Flag 
09:57AM EDT


 

Airport Tracker/Info


-or-


 

Live Flight TrackerFlight Track Log ✈ WBR2628 ✈ 26-Jul-2013 ✈ KSTL - KBRL

Flight Track Log - Related Links

Times and Time Zones

All times are in EDT time to prevent confusion due to time zone crossing. See the WBR2628 flight status page for this flight to view local times or setup timezone preferences in your user account.

Time Position Orientation Groundspeed Altitude Reporting Facility
EDT Latitude Longitude Course Direction KTS MPH feet Rate Location/Type
01:03PM 38.7333 -90.3333 38° Northeast 93 107 1,100  Level Gateway (St. Louis) TRACON
01:04PM 38.7500 -90.3167 38° Northeast 119 137 1,700 540 Climbing Gateway (St. Louis) TRACON
01:05PM 38.7656 -90.2906 53° Northeast 121 139 2,100 540 Climbing Kansas City Center
01:06PM 38.7958 -90.2614 37° Northeast 129 148 2,700 660 Climbing Kansas City Center
01:07PM 38.8269 -90.2306 38° Northeast 136 157 3,500 660 Climbing Kansas City Center
01:08PM 38.8600 -90.2406 347° North 131 151 4,100 600 Climbing Kansas City Center
01:09PM 38.9019 -90.2539 346° North 130 150 4,800 600 Climbing Kansas City Center
01:10PM 38.9339 -90.2719 336° Northwest 128 147 5,400 480 Climbing Kansas City Center
01:11PM 38.9639 -90.2919 333° Northwest 124 143 5,900 240 Climbing Kansas City Center
01:12PM 39.0025 -90.3028 348° North 139 160 6,000 60 Climbing Kansas City Center
01:13PM 39.0447 -90.3117 351° North 151 174 6,100  Climbing Kansas City Center
01:14PM 39.0833 -90.3322 338° Northwest 152 175 6,000 -60 Descending Kansas City Center
01:15PM 39.1286 -90.3556 338° Northwest 148 170 6,000  Level Kansas City Center
01:16PM 39.1669 -90.3728 341° North 147 169 6,000  Level Kansas City Center
01:17PM 39.2064 -90.3925 339° North 151 174 6,000  Level Kansas City Center
01:19PM 39.2869 -90.4269 342° North 151 174 6,000  Level Chicago Center
01:20PM 39.3261 -90.4492 336° Northwest 153 176 6,000  Level Chicago Center
01:21PM 39.3658 -90.4644 343° North 151 174 6,100  Climbing Chicago Center
01:22PM 39.4114 -90.4867 339° North 150 173 6,100 -60 Level Kansas City Center
01:23PM 39.4514 -90.5050 341° North 152 175 6,000 -60 Descending Kansas City Center
01:24PM 39.4903 -90.5211 342° North 148 170 6,000  Level Kansas City Center
01:25PM 39.5300 -90.5425 337° Northwest 153 176 6,100  Climbing Kansas City Center
01:26PM 39.5775 -90.5631 342° North 152 175 6,000 -60 Descending Kansas City Center
01:27PM 39.6164 -90.5797 342° North 148 170 6,000  Level Kansas City Center
01:28PM 39.6564 -90.5983 340° North 152 175 6,000  Level Kansas City Center
01:29PM 39.6936 -90.6219 334° Northwest 150 173 6,000  Level Kansas City Center
01:30PM 39.7264 -90.6517 325° Northwest 144 166 6,000  Level Kansas City Center
01:31PM 39.7675 -90.6775 334° Northwest 148 170 6,000  Level Kansas City Center
01:33PM 39.8028 -90.7000 334° Northwest 144 166 6,000  Level Kansas City Center
01:34PM 39.8439 -90.7081 351° North 147 169 6,000  Level Kansas City Center
01:35PM 39.8839 -90.7278 339° North 150 173 6,000  Level Kansas City Center
01:36PM 39.9311 -90.7489 341° North 149 171 6,000  Level Kansas City Center
01:37PM 39.9683 -90.7656 341° North 145 167 6,000  Level Kansas City Center
01:38PM 40.0078 -90.7842 340° North 148 170 6,100  Climbing Kansas City Center
01:39PM 40.0464 -90.7992 343° North 145 167 6,100  Level Kansas City Center
01:40PM 40.0836 -90.8153 342° North 142 163 6,100 -60 Level Kansas City Center
01:41PM 40.1214 -90.8322 341° North 143 165 6,000 -60 Descending Kansas City Center
01:42PM 40.1594 -90.8489 341° North 144 166 6,000  Level Kansas City Center
01:43PM 40.2033 -90.8678 342° North 139 160 6,100  Climbing Chicago Center
01:44PM 40.2417 -90.8856 341° North 142 163 6,100  Level Chicago Center
01:45PM 40.2781 -90.9014 342° North 140 161 6,100  Level Chicago Center
01:46PM 40.3150 -90.9189 340° North 141 162 6,100  Level Chicago Center
01:47PM 40.3531 -90.9344 343° North 142 163 6,100  Level Chicago Center
01:48PM 40.3986 -90.9569 339° North 145 167 6,100 -60 Level Chicago Center
01:49PM 40.4217 -90.9892 313° West 124 143 6,000 -300 Descending Chicago Center
01:50PM 40.4475 -91.0189 319° Northwest 121 139 5,500 -480 Descending Chicago Center
01:51PM 40.4772 -91.0483 323° Northwest 126 145 5,100 -480 Descending Chicago Center
01:52PM 40.5064 -91.0767 324° Northwest 131 151 4,600 -540 Descending Chicago Center
01:53PM 40.5306 -91.1050 318° Northwest 123 142 4,100 -300 Descending Chicago Center
01:54PM 40.5542 -91.1347 316° Northwest 120 138 4,100  Level Kansas City Center
01:55PM 40.5808 -91.1664 318° Northwest 126 145 4,100  Level Kansas City Center
01:56PM 40.6214 -91.2019 326° Northwest 138 159 4,100 -240 Level Kansas City Center
01:57PM 40.6469 -91.2397 312° West 141 162 3,600 -480 Descending Chicago Center
01:58PM 40.6775 -91.2686 324° Northwest 136 157 3,100 -300 Descending Chicago Center
01:59PM 40.7122 -91.3033 323° Northwest 134 154 3,000 -60 Descending Chicago Center
02:01PM 40.7442 -91.3342 324° Northwest 138 159 3,000  Level Chicago Center
02:02PM 40.7711 -91.3642 320° Northwest 135 155 3,100  Climbing Chicago Center
02:03PM 40.8033 -91.3781 342° North 138 159 3,100  Level Chicago Center
02:04PM 40.8411 -91.3600 20° North 147 169 3,100  Level Chicago Center